Bellevue, Nebraska
Current Conditions -  °F | °C
As of 5:58 PM on Thursday 27 Nov 2014 (Local Time) from KOFF Reporting Station
Scattered Clouds Scattered Clouds  
Wind Chill: 12°   Ceiling: Unl
Heat Index: 22°   Visibility: 10mi
Dew Point: 12°   Wind: 9mph
Humidity: 65%   Direction: 120°ESE
Pressure: 30.31"   Gusts: NA
Location:  41.14°N, 95.89°W
Report Text: KOFF 272358Z AUTO 12008KT 10SM SCT130 M05/M11 A3031 RMK AO2 SLP286 T10531109 11040 21073 57021
Loading
Personal Weather Stations






























Interactive Weather Map New forecast layout! Learn more

10-Day Weather Forecast

Advertisements
Track Severe Weather on mobile